sensor_id;sensor_type;location;lat;lon;timestamp;pressure;altitude;pressure_sealevel;temperature
76007;BMP280;64699;0.000;0.000;2024-02-21T00:01:22;100978.72;;;19.70
76007;BMP280;64699;0.000;0.000;2024-02-21T00:03:48;100974.22;;;19.67
76007;BMP280;64699;0.000;0.000;2024-02-21T00:06:13;100972.78;;;19.66
76007;BMP280;64699;0.000;0.000;2024-02-21T00:08:38;100975.72;;;19.68
76007;BMP280;64699;0.000;0.000;2024-02-21T00:11:03;100971.28;;;19.65
76007;BMP280;64699;0.000;0.000;2024-02-21T00:13:29;100977.53;;;19.65
76007;BMP280;64699;0.000;0.000;2024-02-21T00:15:54;100970.53;;;19.64
76007;BMP280;64699;0.000;0.000;2024-02-21T00:18:19;100971.28;;;19.65
76007;BMP280;64699;0.000;0.000;2024-02-21T00:20:45;100969.25;;;19.65
76007;BMP280;64699;0.000;0.000;2024-02-21T00:23:10;100962.75;;;19.63
76007;BMP280;64699;0.000;0.000;2024-02-21T00:25:35;100961.53;;;19.64
76007;BMP280;64699;0.000;0.000;2024-02-21T00:28:00;100962.75;;;19.63
76007;BMP280;64699;0.000;0.000;2024-02-21T00:30:25;100956.50;;;19.62
76007;BMP280;64699;0.000;0.000;2024-02-21T00:32:51;100969.53;;;19.62
76007;BMP280;64699;0.000;0.000;2024-02-21T00:35:16;100973.59;;;19.61
76007;BMP280;64699;0.000;0.000;2024-02-21T00:37:41;100965.31;;;19.61
76007;BMP280;64699;0.000;0.000;2024-02-21T00:40:07;100964.03;;;19.62
76007;BMP280;64699;0.000;0.000;2024-02-21T00:42:32;100955.56;;;19.60
76007;BMP280;64699;0.000;0.000;2024-02-21T00:44:57;100961.25;;;19.62
76007;BMP280;64699;0.000;0.000;2024-02-21T00:47:23;100951.53;;;19.61
76007;BMP280;64699;0.000;0.000;2024-02-21T00:49:48;100958.31;;;19.60
76007;BMP280;64699;0.000;0.000;2024-02-21T00:52:13;100954.78;;;19.59
76007;BMP280;64699;0.000;0.000;2024-02-21T00:54:38;100947.59;;;19.56
76007;BMP280;64699;0.000;0.000;2024-02-21T00:57:03;100947.06;;;19.58
76007;BMP280;64699;0.000;0.000;2024-02-21T00:59:29;100940.81;;;19.57
76007;BMP280;64699;0.000;0.000;2024-02-21T01:01:54;100938.06;;;19.57
76007;BMP280;64699;0.000;0.000;2024-02-21T01:04:19;100943.56;;;19.57
76007;BMP280;64699;0.000;0.000;2024-02-21T01:06:44;100936.56;;;19.56
76007;BMP280;64699;0.000;0.000;2024-02-21T01:09:10;100935.06;;;19.55
76007;BMP280;64699;0.000;0.000;2024-02-21T01:11:35;100941.09;;;19.54
76007;BMP280;64699;0.000;0.000;2024-02-21T01:14:01;100937.38;;;19.51
76007;BMP280;64699;0.000;0.000;2024-02-21T01:16:26;100927.13;;;19.52
76007;BMP280;64699;0.000;0.000;2024-02-21T01:18:51;100923.59;;;19.51
76007;BMP280;64699;0.000;0.000;2024-02-21T01:21:16;100935.38;;;19.52
76007;BMP280;64699;0.000;0.000;2024-02-21T01:23:42;100920.63;;;19.49
76007;BMP280;64699;0.000;0.000;2024-02-21T01:26:07;100917.88;;;19.49
76007;BMP280;64699;0.000;0.000;2024-02-21T01:28:33;100921.38;;;19.50
76007;BMP280;64699;0.000;0.000;2024-02-21T01:30:59;100915.69;;;19.48
76007;BMP280;64699;0.000;0.000;2024-02-21T01:33:24;100923.38;;;19.49
76007;BMP280;64699;0.000;0.000;2024-02-21T01:35:49;100916.91;;;19.47
76007;BMP280;64699;0.000;0.000;2024-02-21T01:38:15;100923.38;;;19.49
76007;BMP280;64699;0.000;0.000;2024-02-21T01:40:40;100911.09;;;19.50
76007;BMP280;64699;0.000;0.000;2024-02-21T01:43:14;100904.09;;;19.49
76007;BMP280;64699;0.000;0.000;2024-02-21T01:45:40;100917.13;;;19.49
76007;BMP280;64699;0.000;0.000;2024-02-21T01:48:05;100915.03;;;19.55
76007;BMP280;64699;0.000;0.000;2024-02-21T01:50:31;100912.72;;;19.59
76007;BMP280;64699;0.000;0.000;2024-02-21T01:52:56;100912.53;;;19.57
76007;BMP280;64699;0.000;0.000;2024-02-21T01:55:22;100909.31;;;19.53
76007;BMP280;64699;0.000;0.000;2024-02-21T01:57:47;100911.09;;;19.50
76007;BMP280;64699;0.000;0.000;2024-02-21T02:00:13;100905.88;;;19.47
76007;BMP280;64699;0.000;0.000;2024-02-21T02:02:38;100904.41;;;19.46
76007;BMP280;64699;0.000;0.000;2024-02-21T02:05:04;100911.94;;;19.45
76007;BMP280;64699;0.000;0.000;2024-02-21T02:07:31;100911.19;;;19.45
76007;BMP280;64699;0.000;0.000;2024-02-21T02:09:56;100910.47;;;19.44
76007;BMP280;64699;0.000;0.000;2024-02-21T02:12:21;100905.66;;;19.45
76007;BMP280;64699;0.000;0.000;2024-02-21T02:14:56;100906.97;;;19.44
76007;BMP280;64699;0.000;0.000;2024-02-21T02:17:22;100897.19;;;19.43
76007;BMP280;64699;0.000;0.000;2024-02-21T02:19:47;100899.44;;;19.44
76007;BMP280;64699;0.000;0.000;2024-02-21T02:22:14;100894.44;;;19.43
76007;BMP280;64699;0.000;0.000;2024-02-21T02:24:40;100896.97;;;19.41
76007;BMP280;64699;0.000;0.000;2024-02-21T02:27:06;100899.72;;;19.41
76007;BMP280;64699;0.000;0.000;2024-02-21T02:29:32;100895.50;;;19.40
76007;BMP280;64699;0.000;0.000;2024-02-21T02:31:57;100901.00;;;19.40
76007;BMP280;64699;0.000;0.000;2024-02-21T02:34:22;100899.50;;;19.39
76007;BMP280;64699;0.000;0.000;2024-02-21T02:36:47;100898.00;;;19.38
76007;BMP280;64699;0.000;0.000;2024-02-21T02:39:14;100888.47;;;19.39
76007;BMP280;64699;0.000;0.000;2024-02-21T02:41:39;100894.22;;;19.41
76007;BMP280;64699;0.000;0.000;2024-02-21T02:44:05;100888.47;;;19.39
76007;BMP280;64699;0.000;0.000;2024-02-21T02:46:30;100887.00;;;19.38
76007;BMP280;64699;0.000;0.000;2024-02-21T02:48:55;100887.00;;;19.38
76007;BMP280;64699;0.000;0.000;2024-02-21T02:51:20;100889.56;;;19.36
76007;BMP280;64699;0.000;0.000;2024-02-21T02:53:45;100881.28;;;19.36
76007;BMP280;64699;0.000;0.000;2024-02-21T02:56:14;100889.31;;;19.34
76007;BMP280;64699;0.000;0.000;2024-02-21T02:58:39;100890.59;;;19.33
76007;BMP280;64699;0.000;0.000;2024-02-21T03:01:06;100882.31;;;19.33
76007;BMP280;64699;0.000;0.000;2024-02-21T03:03:31;100889.31;;;19.34
76007;BMP280;64699;0.000;0.000;2024-02-21T03:05:56;100885.09;;;19.33
76007;BMP280;64699;0.000;0.000;2024-02-21T03:08:22;100886.56;;;19.34
76007;BMP280;64699;0.000;0.000;2024-02-21T03:10:47;100895.34;;;19.32
76007;BMP280;64699;0.000;0.000;2024-02-21T03:13:13;100884.84;;;19.31
76007;BMP280;64699;0.000;0.000;2024-02-21T03:15:39;100884.84;;;19.31
76007;BMP280;64699;0.000;0.000;2024-02-21T03:18:04;100886.88;;;19.30
76007;BMP280;64699;0.000;0.000;2024-02-21T03:20:29;100887.63;;;19.31
76007;BMP280;64699;0.000;0.000;2024-02-21T03:22:54;100888.16;;;19.29
76007;BMP280;64699;0.000;0.000;2024-02-21T03:25:20;100894.59;;;19.32
76007;BMP280;64699;0.000;0.000;2024-02-21T03:27:45;100888.16;;;19.29
76007;BMP280;64699;0.000;0.000;2024-02-21T03:30:10;100890.16;;;19.29
76007;BMP280;64699;0.000;0.000;2024-02-21T03:32:35;100884.63;;;19.29
76007;BMP280;64699;0.000;0.000;2024-02-21T03:35:01;100892.13;;;19.28
76007;BMP280;64699;0.000;0.000;2024-02-21T03:37:26;100896.91;;;19.28
76007;BMP280;64699;0.000;0.000;2024-02-21T03:39:51;100884.44;;;19.27
76007;BMP280;64699;0.000;0.000;2024-02-21T03:42:16;100886.44;;;19.26
76007;BMP280;64699;0.000;0.000;2024-02-21T03:44:42;100891.22;;;19.26
76007;BMP280;64699;0.000;0.000;2024-02-21T03:47:07;100888.47;;;19.26
76007;BMP280;64699;0.000;0.000;2024-02-21T03:49:35;100883.69;;;19.26
76007;BMP280;64699;0.000;0.000;2024-02-21T03:52:00;100884.22;;;19.25
76007;BMP280;64699;0.000;0.000;2024-02-21T03:54:25;100884.94;;;19.25
76007;BMP280;64699;0.000;0.000;2024-02-21T03:56:51;100882.19;;;19.25
76007;BMP280;64699;0.000;0.000;2024-02-21T03:59:16;100875.72;;;19.23
76007;BMP280;64699;0.000;0.000;2024-02-21T04:01:41;100870.94;;;19.23
76007;BMP280;64699;0.000;0.000;2024-02-21T04:04:06;100874.69;;;19.26
76007;BMP280;64699;0.000;0.000;2024-02-21T04:06:32;100870.94;;;19.23
76007;BMP280;64699;0.000;0.000;2024-02-21T04:08:57;100876.44;;;19.23
76007;BMP280;64699;0.000;0.000;2024-02-21T04:11:23;100868.91;;;19.24
76007;BMP280;64699;0.000;0.000;2024-02-21T04:13:48;100872.13;;;19.28
76007;BMP280;64699;0.000;0.000;2024-02-21T04:16:15;100872.13;;;19.28
76007;BMP280;64699;0.000;0.000;2024-02-21T04:18:40;100870.66;;;19.27
76007;BMP280;64699;0.000;0.000;2024-02-21T04:21:06;100873.94;;;19.25
76007;BMP280;64699;0.000;0.000;2024-02-21T04:23:31;100879.22;;;19.23
76007;BMP280;64699;0.000;0.000;2024-02-21T04:25:56;100868.72;;;19.22
76007;BMP280;64699;0.000;0.000;2024-02-21T04:28:21;100873.50;;;19.21
76007;BMP280;64699;0.000;0.000;2024-02-21T04:30:46;100871.47;;;19.22
76007;BMP280;64699;0.000;0.000;2024-02-21T04:33:12;100871.97;;;19.20
76007;BMP280;64699;0.000;0.000;2024-02-21T04:35:37;100871.25;;;19.20
76007;BMP280;64699;0.000;0.000;2024-02-21T04:38:03;100867.22;;;19.21
76007;BMP280;64699;0.000;0.000;2024-02-21T04:40:29;100875.50;;;19.21
76007;BMP280;64699;0.000;0.000;2024-02-21T04:42:54;100875.28;;;19.19
76007;BMP280;64699;0.000;0.000;2024-02-21T04:45:19;100863.53;;;19.18
76007;BMP280;64699;0.000;0.000;2024-02-21T04:47:44;100864.78;;;19.17
76007;BMP280;64699;0.000;0.000;2024-02-21T04:50:09;100860.03;;;19.18
76007;BMP280;64699;0.000;0.000;2024-02-21T04:52:35;100866.28;;;19.18
76007;BMP280;64699;0.000;0.000;2024-02-21T04:55:00;100863.53;;;19.18
76007;BMP280;64699;0.000;0.000;2024-02-21T04:57:25;100858.53;;;19.17
76007;BMP280;64699;0.000;0.000;2024-02-21T04:59:50;100860.75;;;19.18
76007;BMP280;64699;0.000;0.000;2024-02-21T05:02:15;100858.00;;;19.18
76007;BMP280;64699;0.000;0.000;2024-02-21T05:04:42;100864.47;;;19.21
76007;BMP280;64699;0.000;0.000;2024-02-21T05:07:07;100869.22;;;19.20
76007;BMP280;64699;0.000;0.000;2024-02-21T05:09:33;100862.69;;;19.23
76007;BMP280;64699;0.000;0.000;2024-02-21T05:11:58;100857.91;;;19.24
76007;BMP280;64699;0.000;0.000;2024-02-21T05:14:24;100859.41;;;19.25
76007;BMP280;64699;0.000;0.000;2024-02-21T05:16:49;100861.41;;;19.24
76007;BMP280;64699;0.000;0.000;2024-02-21T05:19:14;100857.38;;;19.25
76007;BMP280;64699;0.000;0.000;2024-02-21T05:21:39;100866.41;;;19.26
76007;BMP280;64699;0.000;0.000;2024-02-21T05:24:05;100860.91;;;19.26
76007;BMP280;64699;0.000;0.000;2024-02-21T05:26:30;100863.66;;;19.26
76007;BMP280;64699;0.000;0.000;2024-02-21T05:28:55;100859.63;;;19.27
76007;BMP280;64699;0.000;0.000;2024-02-21T05:31:20;100858.88;;;19.26
76007;BMP280;64699;0.000;0.000;2024-02-21T05:33:48;100864.41;;;19.26
76007;BMP280;64699;0.000;0.000;2024-02-21T05:36:14;100865.16;;;19.27
76007;BMP280;64699;0.000;0.000;2024-02-21T05:38:39;100865.16;;;19.27
76007;BMP280;64699;0.000;0.000;2024-02-21T05:41:04;100865.16;;;19.27
76007;BMP280;64699;0.000;0.000;2024-02-21T05:43:29;100858.16;;;19.26
76007;BMP280;64699;0.000;0.000;2024-02-21T05:45:55;100853.38;;;19.26
76007;BMP280;64699;0.000;0.000;2024-02-21T05:48:20;100856.88;;;19.27
76007;BMP280;64699;0.000;0.000;2024-02-21T05:50:45;100858.16;;;19.26
76007;BMP280;64699;0.000;0.000;2024-02-21T05:53:10;100852.66;;;19.26
76007;BMP280;64699;0.000;0.000;2024-02-21T05:55:36;100855.59;;;19.28
76007;BMP280;64699;0.000;0.000;2024-02-21T05:58:01;100855.59;;;19.28
76007;BMP280;64699;0.000;0.000;2024-02-21T06:00:27;100856.50;;;19.36
76007;BMP280;64699;0.000;0.000;2024-02-21T06:02:52;100858.41;;;19.41
76007;BMP280;64699;0.000;0.000;2024-02-21T06:05:17;100857.53;;;19.33
76007;BMP280;64699;0.000;0.000;2024-02-21T06:07:42;100856.56;;;19.30
76007;BMP280;64699;0.000;0.000;2024-02-21T06:10:08;100853.06;;;19.30
76007;BMP280;64699;0.000;0.000;2024-02-21T06:12:33;100861.09;;;19.28
76007;BMP280;64699;0.000;0.000;2024-02-21T06:14:59;100856.66;;;19.25
76007;BMP280;64699;0.000;0.000;2024-02-21T06:17:24;100858.16;;;19.26
76007;BMP280;64699;0.000;0.000;2024-02-21T06:19:49;100854.41;;;19.23
76007;BMP280;64699;0.000;0.000;2024-02-21T06:22:14;100856.44;;;19.23
76007;BMP280;64699;0.000;0.000;2024-02-21T06:24:40;100848.16;;;19.23
76007;BMP280;64699;0.000;0.000;2024-02-21T06:27:05;100850.69;;;19.21
76007;BMP280;64699;0.000;0.000;2024-02-21T06:29:34;100843.72;;;19.20
76007;BMP280;64699;0.000;0.000;2024-02-21T06:31:59;100846.47;;;19.20
76007;BMP280;64699;0.000;0.000;2024-02-21T06:34:25;100842.22;;;19.19
76007;BMP280;64699;0.000;0.000;2024-02-21T06:36:50;100843.06;;;19.14
76007;BMP280;64699;0.000;0.000;2024-02-21T06:39:15;100852.69;;;19.20
76007;BMP280;64699;0.000;0.000;2024-02-21T06:41:41;100841.00;;;18.65
76007;BMP280;64699;0.000;0.000;2024-02-21T06:44:06;100854.56;;;18.81
76007;BMP280;64699;0.000;0.000;2024-02-21T06:46:31;100846.59;;;18.96
76007;BMP280;64699;0.000;0.000;2024-02-21T06:48:58;100846.72;;;19.04
76007;BMP280;64699;0.000;0.000;2024-02-21T06:51:25;100842.38;;;19.08
76007;BMP280;64699;0.000;0.000;2024-02-21T06:53:50;100842.38;;;19.08
76007;BMP280;64699;0.000;0.000;2024-02-21T06:56:15;100843.13;;;19.09
76007;BMP280;64699;0.000;0.000;2024-02-21T06:58:40;100843.13;;;19.09
76007;BMP280;64699;0.000;0.000;2024-02-21T07:01:06;100841.13;;;19.09
76007;BMP280;64699;0.000;0.000;2024-02-21T07:03:31;100844.31;;;19.13
76007;BMP280;64699;0.000;0.000;2024-02-21T07:05:56;100844.31;;;19.13
76007;BMP280;64699;0.000;0.000;2024-02-21T07:08:21;100852.28;;;19.17
76007;BMP280;64699;0.000;0.000;2024-02-21T07:10:47;100849.59;;;19.11
76007;BMP280;64699;0.000;0.000;2024-02-21T07:13:12;100844.41;;;19.08
76007;BMP280;64699;0.000;0.000;2024-02-21T07:15:38;100849.16;;;19.07
76007;BMP280;64699;0.000;0.000;2024-02-21T07:18:03;100843.66;;;19.07
76007;BMP280;64699;0.000;0.000;2024-02-21T07:20:29;100845.66;;;19.07
76007;BMP280;64699;0.000;0.000;2024-02-21T07:22:54;100836.66;;;19.06
76007;BMP280;64699;0.000;0.000;2024-02-21T07:25:19;100837.19;;;19.05
76007;BMP280;64699;0.000;0.000;2024-02-21T07:27:46;100839.94;;;19.05
76007;BMP280;64699;0.000;0.000;2024-02-21T07:30:11;100845.97;;;19.03
76007;BMP280;64699;0.000;0.000;2024-02-21T07:32:37;100829.47;;;19.03
76007;BMP280;64699;0.000;0.000;2024-02-21T07:35:02;100845.97;;;19.03
76007;BMP280;64699;0.000;0.000;2024-02-21T07:37:27;100836.22;;;19.02
76007;BMP280;64699;0.000;0.000;2024-02-21T07:39:52;100839.72;;;19.03
76007;BMP280;64699;0.000;0.000;2024-02-21T07:42:18;100838.97;;;19.02
76007;BMP280;64699;0.000;0.000;2024-02-21T07:44:43;100824.97;;;19.00
76007;BMP280;64699;0.000;0.000;2024-02-21T07:47:08;100837.50;;;19.01
76007;BMP280;64699;0.000;0.000;2024-02-21T07:49:40;100825.50;;;18.99
76007;BMP280;64699;0.000;0.000;2024-02-21T07:52:05;100827.75;;;19.00
76007;BMP280;64699;0.000;0.000;2024-02-21T07:54:30;100833.03;;;18.98
76007;BMP280;64699;0.000;0.000;2024-02-21T07:56:56;100822.75;;;18.99
76007;BMP280;64699;0.000;0.000;2024-02-21T07:59:21;100822.75;;;18.99
76007;BMP280;64699;0.000;0.000;2024-02-21T08:01:46;100820.50;;;18.97
76007;BMP280;64699;0.000;0.000;2024-02-21T08:04:11;100812.25;;;18.97
76007;BMP280;64699;0.000;0.000;2024-02-21T08:06:36;100814.28;;;18.97
76007;BMP280;64699;0.000;0.000;2024-02-21T08:09:01;100817.03;;;18.97
76007;BMP280;64699;0.000;0.000;2024-02-21T08:11:27;100806.56;;;18.95
76007;BMP280;64699;0.000;0.000;2024-02-21T08:13:52;100812.06;;;18.95
76007;BMP280;64699;0.000;0.000;2024-02-21T08:16:18;100809.31;;;18.95
76007;BMP280;64699;0.000;0.000;2024-02-21T08:18:45;100805.06;;;18.94
76007;BMP280;64699;0.000;0.000;2024-02-21T08:21:11;100802.31;;;18.94
76007;BMP280;64699;0.000;0.000;2024-02-21T08:23:36;100791.81;;;18.93
76007;BMP280;64699;0.000;0.000;2024-02-21T08:26:04;100796.03;;;18.94
76007;BMP280;64699;0.000;0.000;2024-02-21T08:28:30;100793.28;;;18.94
76007;BMP280;64699;0.000;0.000;2024-02-21T08:30:55;100787.03;;;18.93
76007;BMP280;64699;0.000;0.000;2024-02-21T08:33:20;100786.28;;;18.93
76007;BMP280;64699;0.000;0.000;2024-02-21T08:35:49;100782.81;;;18.92
76007;BMP280;64699;0.000;0.000;2024-02-21T08:38:14;100774.56;;;18.92
76007;BMP280;64699;0.000;0.000;2024-02-21T08:40:40;100776.56;;;18.92
76007;BMP280;64699;0.000;0.000;2024-02-21T08:43:05;100779.31;;;18.92
76007;BMP280;64699;0.000;0.000;2024-02-21T08:45:30;100766.81;;;18.91
76007;BMP280;64699;0.000;0.000;2024-02-21T08:47:55;100770.31;;;18.91
76007;BMP280;64699;0.000;0.000;2024-02-21T08:50:20;100768.81;;;18.90
76007;BMP280;64699;0.000;0.000;2024-02-21T08:52:46;100772.34;;;18.91
76007;BMP280;64699;0.000;0.000;2024-02-21T08:55:11;100769.31;;;18.89
76007;BMP280;64699;0.000;0.000;2024-02-21T08:57:36;100766.06;;;18.90
76007;BMP280;64699;0.000;0.000;2024-02-21T09:00:04;100774.13;;;18.88
76007;BMP280;64699;0.000;0.000;2024-02-21T09:02:35;100763.13;;;18.88
76007;BMP280;64699;0.000;0.000;2024-02-21T09:05:00;100765.88;;;18.88
76007;BMP280;64699;0.000;0.000;2024-02-21T09:07:25;100761.81;;;18.89
76007;BMP280;64699;0.000;0.000;2024-02-21T09:09:50;100762.34;;;18.88
76007;BMP280;64699;0.000;0.000;2024-02-21T09:12:15;100766.38;;;18.87
76007;BMP280;64699;0.000;0.000;2024-02-21T09:14:41;100754.63;;;18.86
76007;BMP280;64699;0.000;0.000;2024-02-21T09:17:06;100753.88;;;18.86
76007;BMP280;64699;0.000;0.000;2024-02-21T09:19:31;100759.38;;;18.86
76007;BMP280;64699;0.000;0.000;2024-02-21T09:21:56;100758.13;;;18.87
76007;BMP280;64699;0.000;0.000;2024-02-21T09:24:21;100766.38;;;18.87
76007;BMP280;64699;0.000;0.000;2024-02-21T09:26:47;100760.88;;;18.87
76007;BMP280;64699;0.000;0.000;2024-02-21T09:29:12;100761.38;;;18.85
76007;BMP280;64699;0.000;0.000;2024-02-21T09:31:37;100764.13;;;18.85
76007;BMP280;64699;0.000;0.000;2024-02-21T09:34:03;100755.88;;;18.85
76007;BMP280;64699;0.000;0.000;2024-02-21T09:36:29;100761.38;;;18.85
76007;BMP280;64699;0.000;0.000;2024-02-21T09:38:54;100752.38;;;18.85
76007;BMP280;64699;0.000;0.000;2024-02-21T09:41:25;100761.91;;;18.84
76007;BMP280;64699;0.000;0.000;2024-02-21T09:43:50;100756.94;;;18.82
76007;BMP280;64699;0.000;0.000;2024-02-21T09:46:18;100755.44;;;18.81
76007;BMP280;64699;0.000;0.000;2024-02-21T09:51:12;100756.19;;;18.82
76007;BMP280;64699;0.000;0.000;2024-02-21T09:53:39;100742.97;;;18.62
76007;BMP280;64699;0.000;0.000;2024-02-21T09:56:07;100749.06;;;18.73
76007;BMP280;64699;0.000;0.000;2024-02-21T09:58:32;100739.75;;;18.76
76007;BMP280;64699;0.000;0.000;2024-02-21T10:00:58;100742.72;;;18.78
76007;BMP280;64699;0.000;0.000;2024-02-21T10:03:25;100742.72;;;18.78
76007;BMP280;64699;0.000;0.000;2024-02-21T10:05:50;100737.22;;;18.78
76007;BMP280;64699;0.000;0.000;2024-02-21T10:08:15;100733.72;;;18.78
76007;BMP280;64699;0.000;0.000;2024-02-21T10:10:44;100727.91;;;18.81
76007;BMP280;64699;0.000;0.000;2024-02-21T10:13:10;100732.66;;;18.81
76007;BMP280;64699;0.000;0.000;2024-02-21T10:15:36;100724.97;;;18.79
76007;BMP280;64699;0.000;0.000;2024-02-21T10:18:01;100727.72;;;18.79
76007;BMP280;64699;0.000;0.000;2024-02-21T10:20:28;100725.66;;;18.80
76007;BMP280;64699;0.000;0.000;2024-02-21T10:23:00;100708.19;;;18.77
76007;BMP280;64699;0.000;0.000;2024-02-21T10:25:26;100710.97;;;18.77
76007;BMP280;64699;0.000;0.000;2024-02-21T10:27:52;100711.72;;;18.78
76007;BMP280;64699;0.000;0.000;2024-02-21T10:30:17;100710.97;;;18.77
76007;BMP280;64699;0.000;0.000;2024-02-21T10:32:52;100696.47;;;18.77
76007;BMP280;64699;0.000;0.000;2024-02-21T10:35:30;100700.00;;;18.90
76007;BMP280;64699;0.000;0.000;2024-02-21T10:37:56;100703.56;;;18.85
76007;BMP280;64699;0.000;0.000;2024-02-21T10:40:24;100701.88;;;18.82
76007;BMP280;64699;0.000;0.000;2024-02-21T10:42:51;100704.41;;;18.80
76007;BMP280;64699;0.000;0.000;2024-02-21T10:45:19;100693.94;;;18.79
76007;BMP280;64699;0.000;0.000;2024-02-21T10:47:46;100693.94;;;18.79
76007;BMP280;64699;0.000;0.000;2024-02-21T10:50:13;100693.16;;;18.78
76007;BMP280;64699;0.000;0.000;2024-02-21T10:53:01;100692.44;;;18.78
76007;BMP280;64699;0.000;0.000;2024-02-21T10:55:50;100686.19;;;18.77
76007;BMP280;64699;0.000;0.000;2024-02-21T10:58:13;100687.66;;;18.78
76007;BMP280;64699;0.000;0.000;2024-02-21T11:00:39;100679.94;;;18.77
76007;BMP280;64699;0.000;0.000;2024-02-21T11:03:04;100670.94;;;18.76
76007;BMP280;64699;0.000;0.000;2024-02-21T11:05:30;100673.69;;;18.76
76007;BMP280;64699;0.000;0.000;2024-02-21T11:07:55;100669.44;;;18.75
76007;BMP280;64699;0.000;0.000;2024-02-21T11:10:24;100665.44;;;18.76
76007;BMP280;64699;0.000;0.000;2024-02-21T11:12:52;100666.69;;;18.75
76007;BMP280;64699;0.000;0.000;2024-02-21T11:15:17;100658.97;;;18.74
76007;BMP280;64699;0.000;0.000;2024-02-21T11:17:52;100654.22;;;18.74
76007;BMP280;64699;0.000;0.000;2024-02-21T11:20:18;100648.72;;;18.74
76007;BMP280;64699;0.000;0.000;2024-02-21T11:22:43;100647.47;;;18.88
76007;BMP280;64699;0.000;0.000;2024-02-21T11:25:08;100641.75;;;18.86
76007;BMP280;64699;0.000;0.000;2024-02-21T11:27:37;100641.00;;;18.86
76007;BMP280;64699;0.000;0.000;2024-02-21T11:30:03;100636.25;;;18.86
76007;BMP280;64699;0.000;0.000;2024-02-21T11:32:29;100636.00;;;18.84
76007;BMP280;64699;0.000;0.000;2024-02-21T11:35:02;100635.59;;;18.80
76007;BMP280;64699;0.000;0.000;2024-02-21T11:37:29;100637.59;;;18.80
76007;BMP280;64699;0.000;0.000;2024-02-21T11:39:55;100629.88;;;18.78
76007;BMP280;64699;0.000;0.000;2024-02-21T11:42:20;100624.91;;;18.77
76007;BMP280;64699;0.000;0.000;2024-02-21T11:44:45;100624.91;;;18.77
76007;BMP280;64699;0.000;0.000;2024-02-21T11:47:11;100626.88;;;18.76
76007;BMP280;64699;0.000;0.000;2024-02-21T11:49:37;100628.16;;;18.75
76007;BMP280;64699;0.000;0.000;2024-02-21T11:52:03;100622.66;;;18.75
76007;BMP280;64699;0.000;0.000;2024-02-21T11:54:32;100621.19;;;18.74
76007;BMP280;64699;0.000;0.000;2024-02-21T11:56:57;100624.47;;;18.73
76007;BMP280;64699;0.000;0.000;2024-02-21T11:59:22;100623.72;;;18.72
76007;BMP280;64699;0.000;0.000;2024-02-21T12:01:48;100618.94;;;18.73
76007;BMP280;64699;0.000;0.000;2024-02-21T12:04:13;100621.69;;;18.73
76007;BMP280;64699;0.000;0.000;2024-02-21T12:06:38;100616.72;;;18.71
76007;BMP280;64699;0.000;0.000;2024-02-21T12:09:06;100613.03;;;18.69
76007;BMP280;64699;0.000;0.000;2024-02-21T12:11:33;100614.19;;;18.73
76007;BMP280;64699;0.000;0.000;2024-02-21T12:14:02;100607.44;;;18.74
76007;BMP280;64699;0.000;0.000;2024-02-21T12:16:37;100616.72;;;18.71
76007;BMP280;64699;0.000;0.000;2024-02-21T12:19:03;100607.00;;;18.70
76007;BMP280;64699;0.000;0.000;2024-02-21T12:21:32;100611.00;;;18.69
76007;BMP280;64699;0.000;0.000;2024-02-21T12:24:00;100594.50;;;18.69
76007;BMP280;64699;0.000;0.000;2024-02-21T12:26:35;100595.75;;;18.68
76007;BMP280;64699;0.000;0.000;2024-02-21T12:29:01;100595.75;;;18.68
76007;BMP280;64699;0.000;0.000;2024-02-21T12:31:26;100591.00;;;18.69
76007;BMP280;64699;0.000;0.000;2024-02-21T12:33:52;100598.50;;;18.68
76007;BMP280;64699;0.000;0.000;2024-02-21T12:36:18;100597.03;;;18.67
76007;BMP280;64699;0.000;0.000;2024-02-21T12:38:43;100594.28;;;18.67
76007;BMP280;64699;0.000;0.000;2024-02-21T12:41:09;100595.53;;;18.66
76007;BMP280;64699;0.000;0.000;2024-02-21T12:43:34;100589.31;;;18.66
76007;BMP280;64699;0.000;0.000;2024-02-21T12:45:59;100583.81;;;18.66
76007;BMP280;64699;0.000;0.000;2024-02-21T12:48:24;100581.06;;;18.66
76007;BMP280;64699;0.000;0.000;2024-02-21T12:50:50;100578.31;;;18.66
76007;BMP280;64699;0.000;0.000;2024-02-21T12:53:16;100576.81;;;18.65
76007;BMP280;64699;0.000;0.000;2024-02-21T12:55:42;100568.56;;;18.65
76007;BMP280;64699;0.000;0.000;2024-02-21T12:58:07;100574.81;;;18.65
76007;BMP280;64699;0.000;0.000;2024-02-21T13:00:32;100571.84;;;18.63
76007;BMP280;64699;0.000;0.000;2024-02-21T13:02:57;100567.06;;;18.64
76007;BMP280;64699;0.000;0.000;2024-02-21T13:05:23;100561.56;;;18.64
76007;BMP280;64699;0.000;0.000;2024-02-21T13:07:48;100562.06;;;18.62
76007;BMP280;64699;0.000;0.000;2024-02-21T13:10:13;100565.59;;;18.63
76007;BMP280;64699;0.000;0.000;2024-02-21T13:12:39;100556.56;;;18.62
76007;BMP280;64699;0.000;0.000;2024-02-21T13:15:04;100553.81;;;18.62
76007;BMP280;64699;0.000;0.000;2024-02-21T13:17:30;100555.84;;;18.62
76007;BMP280;64699;0.000;0.000;2024-02-21T13:19:56;100553.09;;;18.62
76007;BMP280;64699;0.000;0.000;2024-02-21T13:22:21;100553.09;;;18.62
76007;BMP280;64699;0.000;0.000;2024-02-21T13:24:50;100546.84;;;18.61
76007;BMP280;64699;0.000;0.000;2024-02-21T13:27:15;100542.81;;;18.62
76007;BMP280;64699;0.000;0.000;2024-02-21T13:29:41;100541.34;;;18.61
76007;BMP280;64699;0.000;0.000;2024-02-21T13:32:06;100538.38;;;18.59
76007;BMP280;64699;0.000;0.000;2024-02-21T13:34:31;100547.41;;;18.60
76007;BMP280;64699;0.000;0.000;2024-02-21T13:36:56;100535.13;;;18.61
76007;BMP280;64699;0.000;0.000;2024-02-21T13:39:22;100538.38;;;18.59
76007;BMP280;64699;0.000;0.000;2024-02-21T13:41:47;100527.38;;;18.59
76007;BMP280;64699;0.000;0.000;2024-02-21T13:44:13;100528.13;;;18.60
76007;BMP280;64699;0.000;0.000;2024-02-21T13:46:38;100515.63;;;18.59
76007;BMP280;64699;0.000;0.000;2024-02-21T13:49:05;100520.38;;;18.58
76007;BMP280;64699;0.000;0.000;2024-02-21T13:51:31;100514.88;;;18.58
76007;BMP280;64699;0.000;0.000;2024-02-21T13:53:56;100499.09;;;18.59
76007;BMP280;64699;0.000;0.000;2024-02-21T13:56:22;100502.41;;;18.57
76007;BMP280;64699;0.000;0.000;2024-02-21T13:58:47;100505.88;;;18.58
76007;BMP280;64699;0.000;0.000;2024-02-21T14:01:12;100496.34;;;18.59
76007;BMP280;64699;0.000;0.000;2024-02-21T14:03:37;100484.63;;;18.58